sensor_id;sensor_type;location;lat;lon;timestamp;P1;durP1;ratioP1;P2;durP2;ratioP2
4986;SDS011;12674;51.500;7.552;2023-04-01T00:01:06;2.50;;;0.80;;
4986;SDS011;12674;51.500;7.552;2023-04-01T00:03:09;7.00;;;1.10;;
4986;SDS011;12674;51.500;7.552;2023-04-01T00:05:13;4.87;;;0.83;;
4986;SDS011;12674;51.500;7.552;2023-04-01T00:07:17;3.63;;;0.80;;
4986;SDS011;12674;51.500;7.552;2023-04-01T00:09:21;2.33;;;0.80;;
4986;SDS011;12674;51.500;7.552;2023-04-01T00:11:24;1.07;;;0.80;;
4986;SDS011;12674;51.500;7.552;2023-04-01T00:13:28;1.60;;;0.70;;
4986;SDS011;12674;51.500;7.552;2023-04-01T00:15:31;2.60;;;1.00;;
4986;SDS011;12674;51.500;7.552;2023-04-01T00:17:36;3.67;;;1.10;;
4986;SDS011;12674;51.500;7.552;2023-04-01T00:19:39;2.40;;;0.80;;
4986;SDS011;12674;51.500;7.552;2023-04-01T00:21:42;9.13;;;0.97;;
4986;SDS011;12674;51.500;7.552;2023-04-01T00:23:45;3.63;;;0.90;;
4986;SDS011;12674;51.500;7.552;2023-04-01T00:25:48;3.40;;;0.70;;
4986;SDS011;12674;51.500;7.552;2023-04-01T00:27:51;3.50;;;1.10;;
4986;SDS011;12674;51.500;7.552;2023-04-01T00:29:54;4.10;;;0.70;;
4986;SDS011;12674;51.500;7.552;2023-04-01T00:31:57;2.03;;;0.70;;
4986;SDS011;12674;51.500;7.552;2023-04-01T00:34:02;5.43;;;0.83;;
4986;SDS011;12674;51.500;7.552;2023-04-01T00:36:06;1.50;;;0.63;;
4986;SDS011;12674;51.500;7.552;2023-04-01T00:38:11;1.73;;;0.97;;
4986;SDS011;12674;51.500;7.552;2023-04-01T00:40:21;2.80;;;0.90;;
4986;SDS011;12674;51.500;7.552;2023-04-01T00:42:27;2.67;;;0.90;;
4986;SDS011;12674;51.500;7.552;2023-04-01T00:44:30;4.10;;;1.00;;
4986;SDS011;12674;51.500;7.552;2023-04-01T00:46:36;3.43;;;0.90;;
4986;SDS011;12674;51.500;7.552;2023-04-01T00:48:39;5.77;;;1.23;;
4986;SDS011;12674;51.500;7.552;2023-04-01T00:50:46;1.10;;;0.80;;
4986;SDS011;12674;51.500;7.552;2023-04-01T00:52:52;2.67;;;0.90;;
4986;SDS011;12674;51.500;7.552;2023-04-01T00:54:56;3.43;;;0.77;;
4986;SDS011;12674;51.500;7.552;2023-04-01T00:57:03;2.73;;;0.80;;
4986;SDS011;12674;51.500;7.552;2023-04-01T00:59:10;1.13;;;0.60;;
4986;SDS011;12674;51.500;7.552;2023-04-01T01:01:14;1.63;;;0.90;;
4986;SDS011;12674;51.500;7.552;2023-04-01T01:03:18;2.13;;;0.70;;
4986;SDS011;12674;51.500;7.552;2023-04-01T01:05:22;0.90;;;0.80;;
4986;SDS011;12674;51.500;7.552;2023-04-01T01:07:38;2.07;;;0.80;;
4986;SDS011;12674;51.500;7.552;2023-04-01T01:09:51;1.60;;;0.70;;
4986;SDS011;12674;51.500;7.552;2023-04-01T01:12:00;1.93;;;0.90;;
4986;SDS011;12674;51.500;7.552;2023-04-01T01:14:09;2.40;;;0.70;;
4986;SDS011;12674;51.500;7.552;2023-04-01T01:16:19;12.73;;;0.90;;
4986;SDS011;12674;51.500;7.552;2023-04-01T01:18:31;2.30;;;0.70;;
4986;SDS011;12674;51.500;7.552;2023-04-01T01:20:42;1.43;;;0.60;;
4986;SDS011;12674;51.500;7.552;2023-04-01T01:23:16;1.27;;;0.70;;
4986;SDS011;12674;51.500;7.552;2023-04-01T01:25:29;0.50;;;0.50;;
4986;SDS011;12674;51.500;7.552;2023-04-01T01:27:35;0.70;;;0.60;;
4986;SDS011;12674;51.500;7.552;2023-04-01T01:32:13;0.80;;;0.50;;
4986;SDS011;12674;51.500;7.552;2023-04-01T01:34:22;1.10;;;0.50;;
4986;SDS011;12674;51.500;7.552;2023-04-01T01:36:28;0.73;;;0.70;;
4986;SDS011;12674;51.500;7.552;2023-04-01T01:38:37;1.67;;;0.83;;
4986;SDS011;12674;51.500;7.552;2023-04-01T01:40:41;9.30;;;0.63;;
4986;SDS011;12674;51.500;7.552;2023-04-01T01:42:46;1.90;;;0.90;;
4986;SDS011;12674;51.500;7.552;2023-04-01T01:44:51;0.77;;;0.57;;
4986;SDS011;12674;51.500;7.552;2023-04-01T01:46:55;4.47;;;0.80;;
4986;SDS011;12674;51.500;7.552;2023-04-01T01:48:58;0.93;;;0.60;;
4986;SDS011;12674;51.500;7.552;2023-04-01T01:51:02;3.03;;;0.70;;
4986;SDS011;12674;51.500;7.552;2023-04-01T01:53:08;3.30;;;0.67;;
4986;SDS011;12674;51.500;7.552;2023-04-01T01:55:28;5.40;;;0.80;;
4986;SDS011;12674;51.500;7.552;2023-04-01T01:57:34;0.80;;;0.60;;
4986;SDS011;12674;51.500;7.552;2023-04-01T01:59:42;3.77;;;0.80;;
4986;SDS011;12674;51.500;7.552;2023-04-01T02:01:52;0.83;;;0.70;;
4986;SDS011;12674;51.500;7.552;2023-04-01T02:03:57;1.60;;;0.60;;
4986;SDS011;12674;51.500;7.552;2023-04-01T02:06:04;0.70;;;0.63;;
4986;SDS011;12674;51.500;7.552;2023-04-01T02:08:12;0.87;;;0.53;;
4986;SDS011;12674;51.500;7.552;2023-04-01T02:10:17;2.33;;;0.80;;
4986;SDS011;12674;51.500;7.552;2023-04-01T02:12:20;1.10;;;0.80;;
4986;SDS011;12674;51.500;7.552;2023-04-01T02:14:25;4.10;;;0.80;;
4986;SDS011;12674;51.500;7.552;2023-04-01T02:16:31;0.90;;;0.77;;
4986;SDS011;12674;51.500;7.552;2023-04-01T02:18:36;4.67;;;0.60;;
4986;SDS011;12674;51.500;7.552;2023-04-01T02:20:41;2.27;;;0.70;;
4986;SDS011;12674;51.500;7.552;2023-04-01T02:22:47;1.67;;;0.60;;
4986;SDS011;12674;51.500;7.552;2023-04-01T02:24:53;2.00;;;0.50;;
4986;SDS011;12674;51.500;7.552;2023-04-01T02:27:00;2.03;;;0.80;;
4986;SDS011;12674;51.500;7.552;2023-04-01T02:29:04;1.73;;;0.67;;
4986;SDS011;12674;51.500;7.552;2023-04-01T02:31:08;1.33;;;0.67;;
4986;SDS011;12674;51.500;7.552;2023-04-01T02:33:12;1.50;;;0.60;;
4986;SDS011;12674;51.500;7.552;2023-04-01T02:35:16;2.57;;;1.07;;
4986;SDS011;12674;51.500;7.552;2023-04-01T02:37:20;0.90;;;0.60;;
4986;SDS011;12674;51.500;7.552;2023-04-01T02:39:23;1.17;;;0.60;;
4986;SDS011;12674;51.500;7.552;2023-04-01T02:41:28;1.50;;;0.50;;
4986;SDS011;12674;51.500;7.552;2023-04-01T02:43:31;0.93;;;0.50;;
4986;SDS011;12674;51.500;7.552;2023-04-01T02:45:35;1.17;;;0.60;;
4986;SDS011;12674;51.500;7.552;2023-04-01T02:47:38;2.10;;;0.80;;
4986;SDS011;12674;51.500;7.552;2023-04-01T02:49:41;2.00;;;0.73;;
4986;SDS011;12674;51.500;7.552;2023-04-01T02:51:44;3.83;;;1.00;;
4986;SDS011;12674;51.500;7.552;2023-04-01T02:53:47;0.80;;;0.60;;
4986;SDS011;12674;51.500;7.552;2023-04-01T02:55:50;3.17;;;0.70;;
4986;SDS011;12674;51.500;7.552;2023-04-01T02:57:55;0.90;;;0.60;;
4986;SDS011;12674;51.500;7.552;2023-04-01T02:59:58;0.50;;;0.50;;
4986;SDS011;12674;51.500;7.552;2023-04-01T03:02:03;0.50;;;0.50;;
4986;SDS011;12674;51.500;7.552;2023-04-01T03:04:06;0.50;;;0.50;;
4986;SDS011;12674;51.500;7.552;2023-04-01T03:06:10;0.50;;;0.50;;
4986;SDS011;12674;51.500;7.552;2023-04-01T03:08:13;1.63;;;0.50;;
4986;SDS011;12674;51.500;7.552;2023-04-01T03:10:17;1.17;;;0.70;;
4986;SDS011;12674;51.500;7.552;2023-04-01T03:12:20;3.73;;;0.70;;
4986;SDS011;12674;51.500;7.552;2023-04-01T03:14:26;0.80;;;0.50;;
4986;SDS011;12674;51.500;7.552;2023-04-01T03:16:29;1.90;;;0.50;;
4986;SDS011;12674;51.500;7.552;2023-04-01T03:18:32;0.70;;;0.60;;
4986;SDS011;12674;51.500;7.552;2023-04-01T03:20:36;0.80;;;0.60;;
4986;SDS011;12674;51.500;7.552;2023-04-01T03:22:39;0.50;;;0.50;;
4986;SDS011;12674;51.500;7.552;2023-04-01T03:24:43;0.50;;;0.50;;
4986;SDS011;12674;51.500;7.552;2023-04-01T03:26:46;0.87;;;0.60;;
4986;SDS011;12674;51.500;7.552;2023-04-01T03:28:50;0.40;;;0.40;;
4986;SDS011;12674;51.500;7.552;2023-04-01T03:30:54;0.50;;;0.50;;
4986;SDS011;12674;51.500;7.552;2023-04-01T03:32:57;1.37;;;0.80;;
4986;SDS011;12674;51.500;7.552;2023-04-01T03:35:01;1.83;;;0.60;;
4986;SDS011;12674;51.500;7.552;2023-04-01T03:37:04;2.10;;;0.57;;
4986;SDS011;12674;51.500;7.552;2023-04-01T03:39:07;0.50;;;0.50;;
4986;SDS011;12674;51.500;7.552;2023-04-01T03:41:15;0.50;;;0.50;;
4986;SDS011;12674;51.500;7.552;2023-04-01T03:43:19;2.00;;;0.80;;
4986;SDS011;12674;51.500;7.552;2023-04-01T03:45:23;0.70;;;0.50;;
4986;SDS011;12674;51.500;7.552;2023-04-01T03:47:28;0.50;;;0.50;;
4986;SDS011;12674;51.500;7.552;2023-04-01T03:49:31;1.17;;;0.60;;
4986;SDS011;12674;51.500;7.552;2023-04-01T03:51:35;0.43;;;0.43;;
4986;SDS011;12674;51.500;7.552;2023-04-01T03:53:38;0.50;;;0.50;;
4986;SDS011;12674;51.500;7.552;2023-04-01T03:55:41;2.67;;;0.50;;
4986;SDS011;12674;51.500;7.552;2023-04-01T03:57:44;2.13;;;0.50;;
4986;SDS011;12674;51.500;7.552;2023-04-01T03:59:52;1.00;;;0.70;;
4986;SDS011;12674;51.500;7.552;2023-04-01T04:01:55;2.00;;;0.63;;
4986;SDS011;12674;51.500;7.552;2023-04-01T04:03:59;1.00;;;0.70;;
4986;SDS011;12674;51.500;7.552;2023-04-01T04:06:03;1.23;;;0.70;;
4986;SDS011;12674;51.500;7.552;2023-04-01T04:08:06;2.60;;;0.50;;
4986;SDS011;12674;51.500;7.552;2023-04-01T04:10:09;2.87;;;0.50;;
4986;SDS011;12674;51.500;7.552;2023-04-01T04:12:12;0.80;;;0.50;;
4986;SDS011;12674;51.500;7.552;2023-04-01T04:14:15;1.23;;;0.60;;
4986;SDS011;12674;51.500;7.552;2023-04-01T04:16:19;2.60;;;0.60;;
4986;SDS011;12674;51.500;7.552;2023-04-01T04:18:30;1.00;;;0.50;;
4986;SDS011;12674;51.500;7.552;2023-04-01T04:20:34;0.60;;;0.60;;
4986;SDS011;12674;51.500;7.552;2023-04-01T04:22:37;2.70;;;0.50;;
4986;SDS011;12674;51.500;7.552;2023-04-01T04:24:42;0.60;;;0.50;;
4986;SDS011;12674;51.500;7.552;2023-04-01T04:26:47;1.60;;;0.50;;
4986;SDS011;12674;51.500;7.552;2023-04-01T04:28:50;0.60;;;0.60;;
4986;SDS011;12674;51.500;7.552;2023-04-01T04:30:53;0.60;;;0.60;;
4986;SDS011;12674;51.500;7.552;2023-04-01T04:32:56;0.73;;;0.67;;
4986;SDS011;12674;51.500;7.552;2023-04-01T04:34:59;1.43;;;0.80;;
4986;SDS011;12674;51.500;7.552;2023-04-01T04:37:03;2.80;;;0.83;;
4986;SDS011;12674;51.500;7.552;2023-04-01T04:39:09;0.90;;;0.60;;
4986;SDS011;12674;51.500;7.552;2023-04-01T04:41:14;0.70;;;0.60;;
4986;SDS011;12674;51.500;7.552;2023-04-01T04:43:22;0.80;;;0.70;;
4986;SDS011;12674;51.500;7.552;2023-04-01T04:45:25;1.50;;;1.07;;
4986;SDS011;12674;51.500;7.552;2023-04-01T04:47:30;1.20;;;0.70;;
4986;SDS011;12674;51.500;7.552;2023-04-01T04:49:33;1.07;;;0.80;;
4986;SDS011;12674;51.500;7.552;2023-04-01T04:51:41;1.93;;;0.80;;
4986;SDS011;12674;51.500;7.552;2023-04-01T04:53:45;0.90;;;0.70;;
4986;SDS011;12674;51.500;7.552;2023-04-01T04:55:52;0.73;;;0.70;;
4986;SDS011;12674;51.500;7.552;2023-04-01T04:58:21;0.60;;;0.60;;
4986;SDS011;12674;51.500;7.552;2023-04-01T05:00:24;2.10;;;0.80;;
4986;SDS011;12674;51.500;7.552;2023-04-01T05:02:33;1.37;;;0.80;;
4986;SDS011;12674;51.500;7.552;2023-04-01T05:04:36;1.80;;;0.70;;
4986;SDS011;12674;51.500;7.552;2023-04-01T05:06:43;0.70;;;0.60;;
4986;SDS011;12674;51.500;7.552;2023-04-01T05:08:47;0.73;;;0.73;;
4986;SDS011;12674;51.500;7.552;2023-04-01T05:10:51;0.97;;;0.90;;
4986;SDS011;12674;51.500;7.552;2023-04-01T05:12:55;0.70;;;0.70;;
4986;SDS011;12674;51.500;7.552;2023-04-01T05:14:58;0.83;;;0.70;;
4986;SDS011;12674;51.500;7.552;2023-04-01T05:17:01;1.00;;;0.80;;
4986;SDS011;12674;51.500;7.552;2023-04-01T05:19:04;1.07;;;0.90;;
4986;SDS011;12674;51.500;7.552;2023-04-01T05:21:08;1.00;;;0.83;;
4986;SDS011;12674;51.500;7.552;2023-04-01T05:23:12;0.80;;;0.80;;
4986;SDS011;12674;51.500;7.552;2023-04-01T05:25:16;1.20;;;0.80;;
4986;SDS011;12674;51.500;7.552;2023-04-01T05:27:19;1.10;;;1.00;;
4986;SDS011;12674;51.500;7.552;2023-04-01T05:29:23;0.90;;;0.77;;
4986;SDS011;12674;51.500;7.552;2023-04-01T05:31:31;1.03;;;1.03;;
4986;SDS011;12674;51.500;7.552;2023-04-01T05:33:35;3.07;;;0.83;;
4986;SDS011;12674;51.500;7.552;2023-04-01T05:35:39;1.47;;;0.70;;
4986;SDS011;12674;51.500;7.552;2023-04-01T05:37:42;1.47;;;1.00;;
4986;SDS011;12674;51.500;7.552;2023-04-01T05:39:45;0.80;;;0.80;;
4986;SDS011;12674;51.500;7.552;2023-04-01T05:41:50;0.60;;;0.60;;
4986;SDS011;12674;51.500;7.552;2023-04-01T05:43:53;4.30;;;0.80;;
4986;SDS011;12674;51.500;7.552;2023-04-01T05:46:14;2.57;;;0.93;;
4986;SDS011;12674;51.500;7.552;2023-04-01T05:48:30;1.20;;;0.93;;
4986;SDS011;12674;51.500;7.552;2023-04-01T05:50:33;1.30;;;0.67;;
4986;SDS011;12674;51.500;7.552;2023-04-01T05:52:36;1.17;;;0.70;;
4986;SDS011;12674;51.500;7.552;2023-04-01T05:54:40;1.07;;;0.97;;
4986;SDS011;12674;51.500;7.552;2023-04-01T05:56:43;3.30;;;0.70;;
4986;SDS011;12674;51.500;7.552;2023-04-01T05:58:51;0.70;;;0.70;;
4986;SDS011;12674;51.500;7.552;2023-04-01T06:01:01;1.17;;;0.70;;
4986;SDS011;12674;51.500;7.552;2023-04-01T06:03:14;0.87;;;0.70;;
4986;SDS011;12674;51.500;7.552;2023-04-01T06:05:18;0.60;;;0.60;;
4986;SDS011;12674;51.500;7.552;2023-04-01T06:07:23;2.07;;;0.70;;
4986;SDS011;12674;51.500;7.552;2023-04-01T06:09:26;0.90;;;0.80;;
4986;SDS011;12674;51.500;7.552;2023-04-01T06:11:32;0.73;;;0.73;;
4986;SDS011;12674;51.500;7.552;2023-04-01T06:13:42;0.73;;;0.73;;
4986;SDS011;12674;51.500;7.552;2023-04-01T06:15:56;1.50;;;0.80;;
4986;SDS011;12674;51.500;7.552;2023-04-01T06:18:07;0.70;;;0.70;;
4986;SDS011;12674;51.500;7.552;2023-04-01T06:20:23;1.30;;;0.80;;
4986;SDS011;12674;51.500;7.552;2023-04-01T06:22:32;2.47;;;0.90;;
4986;SDS011;12674;51.500;7.552;2023-04-01T06:24:53;1.13;;;0.60;;
4986;SDS011;12674;51.500;7.552;2023-04-01T06:27:07;1.17;;;0.80;;
4986;SDS011;12674;51.500;7.552;2023-04-01T06:29:24;1.33;;;0.80;;
4986;SDS011;12674;51.500;7.552;2023-04-01T06:31:41;1.27;;;0.80;;
4986;SDS011;12674;51.500;7.552;2023-04-01T06:34:06;0.67;;;0.60;;
4986;SDS011;12674;51.500;7.552;2023-04-01T06:38:58;2.37;;;0.80;;
4986;SDS011;12674;51.500;7.552;2023-04-01T06:43:54;0.90;;;0.80;;
4986;SDS011;12674;51.500;7.552;2023-04-01T06:46:27;3.17;;;0.70;;
4986;SDS011;12674;51.500;7.552;2023-04-01T06:49:02;0.70;;;0.70;;
4986;SDS011;12674;51.500;7.552;2023-04-01T06:51:33;1.30;;;0.83;;
4986;SDS011;12674;51.500;7.552;2023-04-01T06:54:02;0.97;;;0.70;;
4986;SDS011;12674;51.500;7.552;2023-04-01T06:56:26;0.60;;;0.60;;
4986;SDS011;12674;51.500;7.552;2023-04-01T06:58:34;1.27;;;0.70;;
4986;SDS011;12674;51.500;7.552;2023-04-01T07:00:39;1.00;;;0.60;;
4986;SDS011;12674;51.500;7.552;2023-04-01T07:02:45;1.00;;;0.70;;
4986;SDS011;12674;51.500;7.552;2023-04-01T07:04:57;3.40;;;0.50;;
4986;SDS011;12674;51.500;7.552;2023-04-01T07:07:01;1.00;;;0.60;;
4986;SDS011;12674;51.500;7.552;2023-04-01T07:09:14;1.43;;;0.63;;
4986;SDS011;12674;51.500;7.552;2023-04-01T07:11:39;14.23;;;0.70;;
4986;SDS011;12674;51.500;7.552;2023-04-01T07:14:02;2.50;;;0.70;;
4986;SDS011;12674;51.500;7.552;2023-04-01T07:16:10;0.60;;;0.60;;
4986;SDS011;12674;51.500;7.552;2023-04-01T07:18:17;1.33;;;0.57;;
4986;SDS011;12674;51.500;7.552;2023-04-01T07:20:24;1.27;;;0.67;;
4986;SDS011;12674;51.500;7.552;2023-04-01T07:22:29;4.67;;;0.67;;
4986;SDS011;12674;51.500;7.552;2023-04-01T07:24:43;2.00;;;0.80;;
4986;SDS011;12674;51.500;7.552;2023-04-01T07:26:47;1.00;;;0.90;;
4986;SDS011;12674;51.500;7.552;2023-04-01T07:28:55;1.00;;;0.90;;
4986;SDS011;12674;51.500;7.552;2023-04-01T07:31:15;0.80;;;0.70;;
4986;SDS011;12674;51.500;7.552;2023-04-01T07:33:22;0.60;;;0.60;;
4986;SDS011;12674;51.500;7.552;2023-04-01T07:35:30;2.63;;;0.70;;
4986;SDS011;12674;51.500;7.552;2023-04-01T07:37:38;0.70;;;0.70;;
4986;SDS011;12674;51.500;7.552;2023-04-01T07:39:48;1.07;;;0.80;;
4986;SDS011;12674;51.500;7.552;2023-04-01T07:42:16;0.70;;;0.60;;
4986;SDS011;12674;51.500;7.552;2023-04-01T07:44:27;1.57;;;0.80;;
4986;SDS011;12674;51.500;7.552;2023-04-01T07:46:46;0.67;;;0.67;;
4986;SDS011;12674;51.500;7.552;2023-04-01T07:49:04;2.23;;;0.70;;
4986;SDS011;12674;51.500;7.552;2023-04-01T07:51:13;1.47;;;0.70;;
4986;SDS011;12674;51.500;7.552;2023-04-01T07:53:19;1.00;;;0.63;;
4986;SDS011;12674;51.500;7.552;2023-04-01T07:55:28;0.60;;;0.60;;
4986;SDS011;12674;51.500;7.552;2023-04-01T07:57:36;1.60;;;0.77;;
4986;SDS011;12674;51.500;7.552;2023-04-01T07:59:45;0.67;;;0.67;;
4986;SDS011;12674;51.500;7.552;2023-04-01T08:02:06;0.97;;;0.80;;
4986;SDS011;12674;51.500;7.552;2023-04-01T08:04:17;0.50;;;0.50;;
4986;SDS011;12674;51.500;7.552;2023-04-01T08:06:39;0.70;;;0.70;;
4986;SDS011;12674;51.500;7.552;2023-04-01T08:08:51;0.63;;;0.63;;
4986;SDS011;12674;51.500;7.552;2023-04-01T08:11:21;0.63;;;0.63;;
4986;SDS011;12674;51.500;7.552;2023-04-01T08:14:04;0.70;;;0.70;;
4986;SDS011;12674;51.500;7.552;2023-04-01T08:16:32;0.97;;;0.70;;
4986;SDS011;12674;51.500;7.552;2023-04-01T08:18:41;1.63;;;0.90;;
4986;SDS011;12674;51.500;7.552;2023-04-01T08:20:50;0.80;;;0.70;;
4986;SDS011;12674;51.500;7.552;2023-04-01T08:22:58;1.43;;;0.90;;
4986;SDS011;12674;51.500;7.552;2023-04-01T08:25:10;0.60;;;0.60;;
4986;SDS011;12674;51.500;7.552;2023-04-01T08:27:18;0.70;;;0.70;;
4986;SDS011;12674;51.500;7.552;2023-04-01T08:29:27;1.43;;;0.70;;
4986;SDS011;12674;51.500;7.552;2023-04-01T08:31:39;0.80;;;0.70;;
4986;SDS011;12674;51.500;7.552;2023-04-01T08:33:46;5.13;;;0.90;;
4986;SDS011;12674;51.500;7.552;2023-04-01T08:35:51;0.70;;;0.70;;
4986;SDS011;12674;51.500;7.552;2023-04-01T08:38:01;0.70;;;0.70;;
4986;SDS011;12674;51.500;7.552;2023-04-01T08:40:22;0.80;;;0.80;;
4986;SDS011;12674;51.500;7.552;2023-04-01T08:42:46;3.23;;;0.70;;
4986;SDS011;12674;51.500;7.552;2023-04-01T08:45:00;0.60;;;0.60;;
4986;SDS011;12674;51.500;7.552;2023-04-01T08:52:52;0.60;;;0.60;;
4986;SDS011;12674;51.500;7.552;2023-04-01T08:57:39;3.47;;;0.93;;
4986;SDS011;12674;51.500;7.552;2023-04-01T09:00:15;0.80;;;0.60;;
4986;SDS011;12674;51.500;7.552;2023-04-01T09:03:02;2.40;;;0.80;;
4986;SDS011;12674;51.500;7.552;2023-04-01T09:05:38;0.80;;;0.70;;
4986;SDS011;12674;51.500;7.552;2023-04-01T09:07:49;1.73;;;0.77;;
4986;SDS011;12674;51.500;7.552;2023-04-01T09:12:38;0.80;;;0.80;;
4986;SDS011;12674;51.500;7.552;2023-04-01T09:14:52;1.20;;;0.90;;
4986;SDS011;12674;51.500;7.552;2023-04-01T09:17:16;0.70;;;0.70;;
4986;SDS011;12674;51.500;7.552;2023-04-01T09:19:28;1.73;;;0.90;;
4986;SDS011;12674;51.500;7.552;2023-04-01T09:21:57;0.83;;;0.83;;
4986;SDS011;12674;51.500;7.552;2023-04-01T09:24:18;0.70;;;0.70;;
4986;SDS011;12674;51.500;7.552;2023-04-01T09:26:37;1.77;;;0.87;;
4986;SDS011;12674;51.500;7.552;2023-04-01T09:28:48;0.93;;;0.90;;
4986;SDS011;12674;51.500;7.552;2023-04-01T09:31:09;0.97;;;0.97;;
4986;SDS011;12674;51.500;7.552;2023-04-01T09:36:38;1.43;;;0.93;;
4986;SDS011;12674;51.500;7.552;2023-04-01T09:38:52;0.90;;;0.90;;
4986;SDS011;12674;51.500;7.552;2023-04-01T09:41:01;1.20;;;1.10;;
4986;SDS011;12674;51.500;7.552;2023-04-01T09:43:22;0.90;;;0.90;;
4986;SDS011;12674;51.500;7.552;2023-04-01T09:45:34;0.90;;;0.90;;
4986;SDS011;12674;51.500;7.552;2023-04-01T09:47:49;3.77;;;1.23;;
4986;SDS011;12674;51.500;7.552;2023-04-01T09:50:04;1.40;;;1.00;;
4986;SDS011;12674;51.500;7.552;2023-04-01T09:52:24;3.70;;;1.30;;
4986;SDS011;12674;51.500;7.552;2023-04-01T09:54:46;1.03;;;1.03;;
4986;SDS011;12674;51.500;7.552;2023-04-01T09:57:06;1.30;;;1.20;;
4986;SDS011;12674;51.500;7.552;2023-04-01T09:59:47;2.70;;;1.53;;
4986;SDS011;12674;51.500;7.552;2023-04-01T10:07:44;4.00;;;1.50;;
4986;SDS011;12674;51.500;7.552;2023-04-01T10:13:25;2.50;;;2.10;;
4986;SDS011;12674;51.500;7.552;2023-04-01T10:16:01;2.10;;;1.90;;
4986;SDS011;12674;51.500;7.552;2023-04-01T10:20:46;2.73;;;2.53;;
4986;SDS011;12674;51.500;7.552;2023-04-01T10:23:07;2.80;;;2.60;;
4986;SDS011;12674;51.500;7.552;2023-04-01T10:36:22;4.00;;;3.70;;
4986;SDS011;12674;51.500;7.552;2023-04-01T10:39:00;4.17;;;3.87;;
4986;SDS011;12674;51.500;7.552;2023-04-01T10:41:40;4.50;;;3.67;;
4986;SDS011;12674;51.500;7.552;2023-04-01T10:44:48;4.20;;;3.90;;
4986;SDS011;12674;51.500;7.552;2023-04-01T10:50:03;3.80;;;3.50;;
4986;SDS011;12674;51.500;7.552;2023-04-01T10:52:40;4.00;;;3.60;;
4986;SDS011;12674;51.500;7.552;2023-04-01T11:01:15;3.30;;;2.90;;
4986;SDS011;12674;51.500;7.552;2023-04-01T11:03:57;3.73;;;3.43;;
4986;SDS011;12674;51.500;7.552;2023-04-01T11:06:54;3.53;;;3.33;;
4986;SDS011;12674;51.500;7.552;2023-04-01T11:09:20;4.63;;;3.40;;
4986;SDS011;12674;51.500;7.552;2023-04-01T11:11:55;3.50;;;3.20;;
4986;SDS011;12674;51.500;7.552;2023-04-01T11:14:20;6.23;;;3.83;;
4986;SDS011;12674;51.500;7.552;2023-04-01T11:16:54;5.00;;;3.20;;
4986;SDS011;12674;51.500;7.552;2023-04-01T11:24:29;2.37;;;2.17;;
4986;SDS011;12674;51.500;7.552;2023-04-01T11:26:57;3.07;;;2.83;;
4986;SDS011;12674;51.500;7.552;2023-04-01T11:29:25;3.27;;;2.57;;
4986;SDS011;12674;51.500;7.552;2023-04-01T11:31:54;2.23;;;2.13;;
4986;SDS011;12674;51.500;7.552;2023-04-01T11:34:05;2.20;;;2.10;;
4986;SDS011;12674;51.500;7.552;2023-04-01T11:36:19;4.47;;;3.00;;
4986;SDS011;12674;51.500;7.552;2023-04-01T11:38:33;2.50;;;2.30;;
4986;SDS011;12674;51.500;7.552;2023-04-01T11:41:02;7.73;;;2.67;;
4986;SDS011;12674;51.500;7.552;2023-04-01T11:43:42;2.63;;;2.43;;
4986;SDS011;12674;51.500;7.552;2023-04-01T11:46:10;2.40;;;2.30;;
4986;SDS011;12674;51.500;7.552;2023-04-01T11:48:27;2.87;;;2.30;;
4986;SDS011;12674;51.500;7.552;2023-04-01T11:50:41;4.50;;;3.10;;
4986;SDS011;12674;51.500;7.552;2023-04-01T11:53:05;3.30;;;2.67;;
4986;SDS011;12674;51.500;7.552;2023-04-01T11:55:23;2.80;;;2.60;;
4986;SDS011;12674;51.500;7.552;2023-04-01T11:57:35;3.30;;;2.10;;
4986;SDS011;12674;51.500;7.552;2023-04-01T12:00:03;2.33;;;2.13;;
4986;SDS011;12674;51.500;7.552;2023-04-01T12:02:18;2.50;;;2.30;;
4986;SDS011;12674;51.500;7.552;2023-04-01T12:04:29;2.60;;;2.27;;
4986;SDS011;12674;51.500;7.552;2023-04-01T12:06:58;2.20;;;2.00;;
4986;SDS011;12674;51.500;7.552;2023-04-01T12:09:06;2.40;;;2.20;;
4986;SDS011;12674;51.500;7.552;2023-04-01T12:11:19;3.67;;;2.93;;
4986;SDS011;12674;51.500;7.552;2023-04-01T12:13:34;2.20;;;2.10;;
4986;SDS011;12674;51.500;7.552;2023-04-01T12:15:43;4.47;;;2.50;;
4986;SDS011;12674;51.500;7.552;2023-04-01T12:17:56;4.10;;;2.80;;
4986;SDS011;12674;51.500;7.552;2023-04-01T12:20:12;3.40;;;3.10;;
4986;SDS011;12674;51.500;7.552;2023-04-01T12:22:24;3.50;;;3.20;;
4986;SDS011;12674;51.500;7.552;2023-04-01T12:27:04;3.50;;;2.80;;
4986;SDS011;12674;51.500;7.552;2023-04-01T12:29:35;3.20;;;3.00;;
4986;SDS011;12674;51.500;7.552;2023-04-01T12:31:46;2.53;;;2.33;;
4986;SDS011;12674;51.500;7.552;2023-04-01T12:33:59;2.43;;;2.23;;
4986;SDS011;12674;51.500;7.552;2023-04-01T12:36:12;2.37;;;2.27;;
4986;SDS011;12674;51.500;7.552;2023-04-01T12:38:22;2.63;;;2.43;;
4986;SDS011;12674;51.500;7.552;2023-04-01T12:40:40;3.97;;;3.13;;
4986;SDS011;12674;51.500;7.552;2023-04-01T12:45:41;3.97;;;3.27;;
4986;SDS011;12674;51.500;7.552;2023-04-01T12:47:51;3.47;;;3.20;;
4986;SDS011;12674;51.500;7.552;2023-04-01T12:50:09;3.57;;;2.63;;
4986;SDS011;12674;51.500;7.552;2023-04-01T12:52:23;3.93;;;3.07;;
4986;SDS011;12674;51.500;7.552;2023-04-01T12:54:38;5.60;;;2.00;;
4986;SDS011;12674;51.500;7.552;2023-04-01T12:57:08;2.77;;;2.30;;
4986;SDS011;12674;51.500;7.552;2023-04-01T12:59:20;2.20;;;1.80;;
4986;SDS011;12674;51.500;7.552;2023-04-01T13:01:45;2.13;;;2.03;;
4986;SDS011;12674;51.500;7.552;2023-04-01T13:04:17;1.90;;;1.80;;
4986;SDS011;12674;51.500;7.552;2023-04-01T13:09:35;2.83;;;2.20;;
4986;SDS011;12674;51.500;7.552;2023-04-01T13:12:05;2.93;;;2.50;;
4986;SDS011;12674;51.500;7.552;2023-04-01T13:14:34;2.43;;;2.23;;
4986;SDS011;12674;51.500;7.552;2023-04-01T13:16:47;4.57;;;4.17;;
4986;SDS011;12674;51.500;7.552;2023-04-01T13:18:56;2.40;;;2.30;;
4986;SDS011;12674;51.500;7.552;2023-04-01T13:21:04;3.80;;;2.53;;
4986;SDS011;12674;51.500;7.552;2023-04-01T13:23:11;2.80;;;2.63;;
4986;SDS011;12674;51.500;7.552;2023-04-01T13:25:23;2.97;;;2.60;;
4986;SDS011;12674;51.500;7.552;2023-04-01T13:27:29;2.57;;;2.37;;
4986;SDS011;12674;51.500;7.552;2023-04-01T13:29:38;3.83;;;3.00;;
4986;SDS011;12674;51.500;7.552;2023-04-01T13:31:50;3.80;;;3.40;;
4986;SDS011;12674;51.500;7.552;2023-04-01T13:34:00;5.00;;;3.30;;
4986;SDS011;12674;51.500;7.552;2023-04-01T13:36:18;5.00;;;4.07;;
4986;SDS011;12674;51.500;7.552;2023-04-01T13:38:30;5.07;;;4.40;;
4986;SDS011;12674;51.500;7.552;2023-04-01T13:40:43;5.10;;;3.90;;
4986;SDS011;12674;51.500;7.552;2023-04-01T13:43:04;4.33;;;3.63;;
4986;SDS011;12674;51.500;7.552;2023-04-01T13:45:11;4.43;;;4.03;;
4986;SDS011;12674;51.500;7.552;2023-04-01T13:47:27;4.30;;;3.47;;
4986;SDS011;12674;51.500;7.552;2023-04-01T13:50:03;13.80;;;4.00;;
4986;SDS011;12674;51.500;7.552;2023-04-01T13:52:25;4.27;;;3.97;;
4986;SDS011;12674;51.500;7.552;2023-04-01T13:54:40;6.60;;;3.57;;
4986;SDS011;12674;51.500;7.552;2023-04-01T13:56:52;5.00;;;3.10;;
4986;SDS011;12674;51.500;7.552;2023-04-01T13:59:05;3.40;;;3.10;;
4986;SDS011;12674;51.500;7.552;2023-04-01T14:01:29;4.20;;;3.80;;
4986;SDS011;12674;51.500;7.552;2023-04-01T14:03:42;4.50;;;3.57;;
4986;SDS011;12674;51.500;7.552;2023-04-01T14:05:50;5.07;;;4.57;;
4986;SDS011;12674;51.500;7.552;2023-04-01T14:08:00;4.70;;;4.30;;
4986;SDS011;12674;51.500;7.552;2023-04-01T14:10:13;4.43;;;4.10;;
4986;SDS011;12674;51.500;7.552;2023-04-01T14:12:26;5.03;;;4.20;;
4986;SDS011;12674;51.500;7.552;2023-04-01T14:14:38;5.60;;;3.97;;
4986;SDS011;12674;51.500;7.552;2023-04-01T14:17:01;5.33;;;4.83;;
4986;SDS011;12674;51.500;7.552;2023-04-01T14:19:16;6.23;;;5.07;;
4986;SDS011;12674;51.500;7.552;2023-04-01T14:21:29;8.27;;;5.10;;
4986;SDS011;12674;51.500;7.552;2023-04-01T14:23:45;6.30;;;4.97;;
4986;SDS011;12674;51.500;7.552;2023-04-01T14:28:40;5.87;;;5.37;;
4986;SDS011;12674;51.500;7.552;2023-04-01T14:30:52;5.20;;;4.70;;
4986;SDS011;12674;51.500;7.552;2023-04-01T14:33:05;5.83;;;5.30;;
4986;SDS011;12674;51.500;7.552;2023-04-01T14:35:24;6.47;;;4.70;;